createdAt,value
2023-04-19T00:00:19.295Z,1961.00
2023-04-19T00:01:19.339Z,1962.00
2023-04-19T00:02:19.546Z,1961.00
2023-04-19T00:03:19.556Z,1964.00
2023-04-19T00:04:19.622Z,1959.00
2023-04-19T00:05:19.486Z,1959.00
2023-04-19T00:06:19.459Z,1958.00
2023-04-19T00:07:19.494Z,1958.00
2023-04-19T00:08:19.516Z,1956.00
2023-04-19T00:09:19.578Z,1956.00
2023-04-19T00:10:19.636Z,1959.00
2023-04-19T00:11:19.709Z,1957.00
2023-04-19T00:12:19.803Z,1952.00
2023-04-19T00:13:19.896Z,1950.00
2023-04-19T00:14:19.947Z,1948.00
2023-04-19T00:15:20.011Z,1950.00
2023-04-19T00:16:20.110Z,1953.00
2023-04-19T00:17:20.164Z,1955.00
2023-04-19T00:18:20.258Z,1952.00
2023-04-19T00:19:20.327Z,1953.00
2023-04-19T00:20:20.421Z,1950.00
2023-04-19T00:21:20.477Z,1949.00
2023-04-19T00:22:20.556Z,1951.00
2023-04-19T00:23:20.636Z,1953.00
2023-04-19T00:24:20.710Z,1949.00
2023-04-19T00:25:20.781Z,1948.00
2023-04-19T00:26:20.867Z,1947.00
2023-04-19T00:27:20.924Z,1946.00
2023-04-19T00:28:21.019Z,1944.00
2023-04-19T00:29:21.041Z,1950.00
2023-04-19T00:30:21.032Z,1947.00
2023-04-19T00:31:21.075Z,1944.00
2023-04-19T00:32:21.060Z,1941.00
2023-04-19T00:33:21.078Z,1943.00
2023-04-19T00:34:21.097Z,1941.00
2023-04-19T00:35:21.109Z,1939.00
2023-04-19T00:36:21.137Z,1940.00
2023-04-19T00:37:21.169Z,1936.00
2023-04-19T00:38:21.181Z,1934.00
2023-04-19T00:39:21.211Z,1934.00
2023-04-19T00:40:21.229Z,1933.00
2023-04-19T00:41:21.257Z,1934.00
2023-04-19T00:42:21.272Z,1935.00
2023-04-19T00:43:21.293Z,1930.00
2023-04-19T00:44:21.324Z,1929.00
2023-04-19T00:45:21.344Z,1931.00
2023-04-19T00:46:21.382Z,1926.00
2023-04-19T00:47:21.403Z,1931.00
2023-04-19T00:48:21.475Z,1929.00
2023-04-19T00:49:21.551Z,1928.00
2023-04-19T00:50:21.632Z,1931.00
2023-04-19T00:51:21.713Z,1927.00
2023-04-19T00:52:21.767Z,1918.00
2023-04-19T00:53:21.852Z,1917.00
2023-04-19T00:54:21.919Z,1922.00
2023-04-19T00:55:22.002Z,1918.00
2023-04-19T00:56:22.083Z,1911.00
2023-04-19T00:57:22.185Z,1908.00
2023-04-19T00:58:22.254Z,1907.00
2023-04-19T00:59:22.320Z,1903.00
2023-04-19T01:00:22.414Z,1901.00
2023-04-19T01:01:22.513Z,1903.00
2023-04-19T01:02:22.664Z,1899.00
2023-04-19T01:03:22.890Z,1897.00
2023-04-19T01:04:22.797Z,1895.00
2023-04-19T01:05:22.721Z,1897.00
2023-04-19T01:06:22.749Z,1894.00
2023-04-19T01:07:22.754Z,1890.00
2023-04-19T01:08:22.804Z,1889.00
2023-04-19T01:09:22.818Z,1890.00
2023-04-19T01:10:22.819Z,1892.00
2023-04-19T01:11:22.848Z,1894.00
2023-04-19T01:12:22.870Z,1892.00
2023-04-19T01:13:22.904Z,1893.00
2023-04-19T01:14:22.927Z,1892.00
2023-04-19T01:15:22.952Z,1889.00
2023-04-19T01:16:23.032Z,1888.00
2023-04-19T01:17:23.007Z,1885.00
2023-04-19T01:18:23.078Z,1888.00
2023-04-19T01:19:23.095Z,1887.00
2023-04-19T01:20:23.118Z,1893.00
2023-04-19T01:21:23.136Z,1894.00
2023-04-19T01:22:23.195Z,1895.00
2023-04-19T01:23:23.200Z,1894.00
2023-04-19T01:24:23.210Z,1890.00
2023-04-19T01:25:23.232Z,1891.00
2023-04-19T01:26:23.236Z,1886.00
2023-04-19T01:27:23.260Z,1888.00
2023-04-19T01:28:23.316Z,1888.00
2023-04-19T01:29:23.414Z,1890.00
2023-04-19T01:30:23.460Z,1890.00
2023-04-19T01:31:24.268Z,1885.00
2023-04-19T01:32:23.676Z,1884.00
2023-04-19T01:33:23.705Z,1883.00
2023-04-19T01:34:23.769Z,1882.00
2023-04-19T01:35:23.843Z,1882.00
2023-04-19T01:36:23.922Z,1884.00
2023-04-19T01:37:23.971Z,1880.00
2023-04-19T01:38:24.058Z,1881.00
2023-04-19T01:39:24.125Z,1881.00
2023-04-19T01:40:24.200Z,1881.00
2023-04-19T01:41:24.286Z,1877.00
2023-04-19T01:42:24.348Z,1873.00
2023-04-19T01:43:24.440Z,1871.00
2023-04-19T01:44:24.501Z,1870.00
2023-04-19T01:45:24.559Z,1871.00
2023-04-19T01:46:24.665Z,1870.00
2023-04-19T01:47:24.688Z,1867.00
2023-04-19T01:48:24.684Z,1864.00
2023-04-19T01:49:24.703Z,1867.00
2023-04-19T01:50:24.726Z,1865.00
2023-04-19T01:51:24.733Z,1864.00
2023-04-19T01:52:24.758Z,1866.00
2023-04-19T01:53:24.790Z,1869.00
2023-04-19T01:54:24.814Z,1870.00
2023-04-19T01:55:24.829Z,1868.00
2023-04-19T01:56:24.861Z,1867.00
2023-04-19T01:57:24.908Z,1866.00
2023-04-19T01:58:24.921Z,1861.00
2023-04-19T01:59:24.945Z,1859.00
2023-04-19T02:00:24.965Z,1856.00
2023-04-19T02:01:25.112Z,1857.00
2023-04-19T02:02:25.192Z,1855.00
2023-04-19T02:03:25.287Z,1855.00
2023-04-19T02:04:25.092Z,1852.00
2023-04-19T02:05:25.084Z,1853.00
2023-04-19T02:06:25.116Z,1856.00
2023-04-19T02:07:25.186Z,1857.00
2023-04-19T02:08:25.283Z,1852.00
2023-04-19T02:09:25.327Z,1852.00
2023-04-19T02:10:25.400Z,1853.00
2023-04-19T02:11:25.472Z,1851.00
2023-04-19T02:12:25.546Z,1850.00
2023-04-19T02:13:25.608Z,1847.00
2023-04-19T02:14:25.683Z,1845.00
2023-04-19T02:15:25.756Z,1845.00
2023-04-19T02:16:25.863Z,1841.00
2023-04-19T02:17:25.922Z,1840.00
2023-04-19T02:18:25.972Z,1844.00
2023-04-19T02:19:26.057Z,1843.00
2023-04-19T02:20:26.109Z,1843.00
2023-04-19T02:21:26.204Z,1840.00
2023-04-19T02:22:26.244Z,1841.00
2023-04-19T02:23:26.329Z,1839.00
2023-04-19T02:24:26.402Z,1840.00
2023-04-19T02:25:26.476Z,1842.00
2023-04-19T02:26:26.539Z,1844.00
2023-04-19T02:27:26.620Z,1842.00
2023-04-19T02:28:26.679Z,1841.00
2023-04-19T02:29:26.754Z,1841.00
2023-04-19T02:30:26.817Z,1840.00
2023-04-19T02:31:26.972Z,1840.00
2023-04-19T02:32:27.021Z,1842.00
2023-04-19T02:33:27.084Z,1843.00
2023-04-19T02:34:27.109Z,1838.00
2023-04-19T02:35:27.171Z,1836.00
2023-04-19T02:36:27.242Z,1835.00
2023-04-19T02:37:27.326Z,1838.00
2023-04-19T02:38:27.375Z,1839.00
2023-04-19T02:39:27.452Z,1837.00
2023-04-19T02:40:27.499Z,1835.00
2023-04-19T02:41:27.639Z,1834.00
2023-04-19T02:42:27.647Z,1828.00
2023-04-19T02:43:27.734Z,1826.00
2023-04-19T02:44:27.795Z,1824.00
2023-04-19T02:45:27.866Z,1818.00
2023-04-19T02:46:28.001Z,1810.00
2023-04-19T02:47:28.032Z,1808.00
2023-04-19T02:48:28.092Z,1808.00
2023-04-19T02:49:28.163Z,1809.00
2023-04-19T02:50:28.213Z,1808.00
2023-04-19T02:51:28.273Z,1811.00
2023-04-19T02:52:28.351Z,1812.00
2023-04-19T02:53:28.444Z,1811.00
2023-04-19T02:54:28.484Z,1810.00
2023-04-19T02:55:28.557Z,1807.00
2023-04-19T02:56:28.626Z,1806.00
2023-04-19T02:57:28.707Z,1805.00
2023-04-19T02:58:28.780Z,1802.00
2023-04-19T02:59:28.872Z,1800.00
2023-04-19T03:00:28.926Z,1801.00
2023-04-19T03:01:29.015Z,1801.00
2023-04-19T03:02:29.150Z,1802.00
2023-04-19T03:03:29.226Z,1802.00
2023-04-19T03:04:29.371Z,1799.00
2023-04-19T03:05:29.323Z,1801.00
2023-04-19T03:06:29.405Z,1802.00
2023-04-19T03:07:29.413Z,1802.00
2023-04-19T03:08:29.461Z,1804.00
2023-04-19T03:09:29.470Z,1802.00
2023-04-19T03:10:29.470Z,1802.00
2023-04-19T03:11:29.510Z,1804.00
2023-04-19T03:12:29.533Z,1799.00
2023-04-19T03:13:29.597Z,1798.00
2023-04-19T03:14:29.580Z,1796.00
2023-04-19T03:15:29.587Z,1792.00
2023-04-19T03:16:29.658Z,1789.00
2023-04-19T03:17:29.687Z,1789.00
2023-04-19T03:18:29.766Z,1790.00
2023-04-19T03:19:29.852Z,1789.00
2023-04-19T03:20:29.913Z,1791.00
2023-04-19T03:21:30.002Z,1791.00
2023-04-19T03:22:29.997Z,1791.00
2023-04-19T03:23:30.012Z,1790.00
2023-04-19T03:24:30.104Z,1788.00
2023-04-19T03:25:30.051Z,1783.00
2023-04-19T03:26:30.074Z,1787.00
2023-04-19T03:27:30.108Z,1784.00
2023-04-19T03:28:30.129Z,1784.00
2023-04-19T03:29:30.222Z,1786.00
2023-04-19T03:30:30.176Z,1785.00
2023-04-19T03:31:30.258Z,1786.00
2023-04-19T03:32:30.366Z,1783.00
2023-04-19T03:33:30.384Z,1782.00
2023-04-19T03:34:30.452Z,1781.00
2023-04-19T03:35:30.523Z,1780.00
2023-04-19T03:36:30.603Z,1781.00
2023-04-19T03:37:30.680Z,1781.00
2023-04-19T03:38:30.743Z,1781.00
2023-04-19T03:39:30.809Z,1783.00
2023-04-19T03:40:30.870Z,1782.00
2023-04-19T03:41:30.970Z,1786.00
2023-04-19T03:42:31.058Z,1784.00
2023-04-19T03:43:31.128Z,1782.00
2023-04-19T03:44:31.203Z,1780.00
2023-04-19T03:45:31.272Z,1776.00
2023-04-19T03:46:31.373Z,1774.00
2023-04-19T03:47:31.369Z,1772.00
2023-04-19T03:48:31.323Z,1776.00
2023-04-19T03:49:31.357Z,1775.00
2023-04-19T03:50:31.361Z,1773.00
2023-04-19T03:51:31.388Z,1770.00
2023-04-19T03:52:31.400Z,1774.00
2023-04-19T03:53:31.740Z,1773.00
2023-04-19T03:54:31.437Z,1778.00
2023-04-19T03:55:31.492Z,1779.00
2023-04-19T03:56:31.573Z,1773.00
2023-04-19T03:57:31.641Z,1772.00
2023-04-19T03:58:31.743Z,1771.00
2023-04-19T03:59:31.839Z,1771.00
2023-04-19T04:00:31.882Z,1769.00
2023-04-19T04:01:31.937Z,1769.00
2023-04-19T04:02:32.033Z,1768.00
2023-04-19T04:03:32.118Z,1768.00
2023-04-19T04:04:32.147Z,1765.00
2023-04-19T04:05:32.129Z,1764.00
2023-04-19T04:06:32.019Z,1761.00
2023-04-19T04:07:32.035Z,1761.00
2023-04-19T04:08:32.070Z,1760.00
2023-04-19T04:09:33.073Z,1761.00
2023-04-19T04:10:34.778Z,1761.00
2023-04-19T04:11:32.126Z,1763.00
2023-04-19T04:12:32.149Z,1762.00
2023-04-19T04:13:32.166Z,1763.00
2023-04-19T04:14:32.206Z,1760.00
2023-04-19T04:15:32.215Z,1759.00
2023-04-19T04:16:32.259Z,1757.00
2023-04-19T04:17:32.315Z,1757.00
2023-04-19T04:18:32.270Z,1752.00
2023-04-19T04:19:32.305Z,1750.00
2023-04-19T04:20:32.312Z,1751.00
2023-04-19T04:21:32.343Z,1753.00
2023-04-19T04:22:32.361Z,1752.00
2023-04-19T04:23:32.384Z,1752.00
2023-04-19T04:24:32.411Z,1754.00
2023-04-19T04:25:32.433Z,1759.00
2023-04-19T04:26:32.460Z,1763.00
2023-04-19T04:27:32.488Z,1764.00
2023-04-19T04:28:32.530Z,1766.00
2023-04-19T04:29:32.552Z,1760.00
2023-04-19T04:30:32.580Z,1757.00
2023-04-19T04:31:32.639Z,1759.00
2023-04-19T04:32:32.655Z,1753.00
2023-04-19T04:33:32.663Z,1748.00
2023-04-19T04:34:32.690Z,1751.00
2023-04-19T04:35:34.267Z,1750.00
2023-04-19T04:36:32.726Z,1753.00
2023-04-19T04:37:32.746Z,1751.00
2023-04-19T04:38:32.770Z,1754.00
2023-04-19T04:39:32.802Z,1753.00
2023-04-19T04:40:32.836Z,1751.00
2023-04-19T04:41:32.839Z,1750.00
2023-04-19T04:42:32.870Z,1748.00
2023-04-19T04:43:32.893Z,1746.00
2023-04-19T04:44:32.923Z,1745.00
2023-04-19T04:45:32.953Z,1741.00
2023-04-19T04:46:32.954Z,1742.00
2023-04-19T04:47:33.019Z,1745.00
2023-04-19T04:48:33.039Z,1745.00
2023-04-19T04:49:33.029Z,1747.00
2023-04-19T04:50:33.076Z,1747.00
2023-04-19T04:51:33.100Z,1746.00
2023-04-19T04:52:33.121Z,1748.00
2023-04-19T04:53:33.135Z,1750.00
2023-04-19T04:54:33.163Z,1750.00
2023-04-19T04:55:33.189Z,1743.00
2023-04-19T04:56:33.235Z,1740.00
2023-04-19T04:57:33.205Z,1737.00
2023-04-19T04:58:33.215Z,1735.00
2023-04-19T04:59:33.243Z,1736.00
2023-04-19T05:00:33.253Z,1735.00
2023-04-19T05:01:33.799Z,1730.00
2023-04-19T05:02:33.383Z,1729.00
2023-04-19T05:03:33.416Z,1728.00
2023-04-19T05:04:33.509Z,1725.00
2023-04-19T05:05:33.552Z,1726.00
2023-04-19T05:06:33.637Z,1727.00
2023-04-19T05:07:33.649Z,1729.00
2023-04-19T05:08:33.672Z,1728.00
2023-04-19T05:09:33.708Z,1726.00
2023-04-19T05:10:33.709Z,1725.00
2023-04-19T05:11:33.730Z,1722.00
2023-04-19T05:12:33.753Z,1723.00
2023-04-19T05:13:33.787Z,1721.00
2023-04-19T05:14:33.791Z,1720.00
2023-04-19T05:15:33.818Z,1720.00
2023-04-19T05:16:33.860Z,1722.00
2023-04-19T05:17:33.873Z,1718.00
2023-04-19T05:18:33.906Z,1715.00
2023-04-19T05:19:33.905Z,1717.00
2023-04-19T05:20:33.929Z,1716.00
2023-04-19T05:21:33.945Z,1713.00
2023-04-19T05:22:34.777Z,1714.00
2023-04-19T05:23:34.782Z,1712.00
2023-04-19T05:24:34.018Z,1712.00
2023-04-19T05:25:34.040Z,1724.00
2023-04-19T05:26:34.051Z,1747.00
2023-04-19T05:27:34.076Z,1770.00
2023-04-19T05:28:34.116Z,1760.00
2023-04-19T05:29:34.120Z,1746.00
2023-04-19T05:30:34.134Z,1752.00
2023-04-19T05:31:35.276Z,1755.00
2023-04-19T05:32:34.318Z,1757.00
2023-04-19T05:33:34.326Z,1748.00
2023-04-19T05:34:34.407Z,1737.00
2023-04-19T05:35:34.470Z,1739.00
2023-04-19T05:36:34.530Z,1736.00
2023-04-19T05:37:34.581Z,1737.00
2023-04-19T05:38:34.647Z,1738.00
2023-04-19T05:39:34.739Z,1741.00
2023-04-19T05:40:34.672Z,1742.00
2023-04-19T05:41:34.704Z,1740.00
2023-04-19T05:42:34.720Z,1737.00
2023-04-19T05:43:34.744Z,1738.00
2023-04-19T05:44:34.764Z,1737.00
2023-04-19T05:45:34.785Z,1740.00
2023-04-19T05:46:34.863Z,1745.00
2023-04-19T05:47:34.846Z,1743.00
2023-04-19T05:48:34.851Z,1749.00
2023-04-19T05:49:34.870Z,1750.00
2023-04-19T05:50:34.900Z,1750.00
2023-04-19T05:51:34.910Z,1751.00
2023-04-19T05:52:34.938Z,1754.00
2023-04-19T05:53:34.974Z,1757.00
2023-04-19T05:54:35.755Z,1762.00
2023-04-19T05:55:35.056Z,1762.00
2023-04-19T05:56:35.031Z,1764.00
2023-04-19T05:57:35.054Z,1762.00
2023-04-19T05:58:35.086Z,1760.00
2023-04-19T05:59:35.146Z,1757.00
2023-04-19T06:00:35.151Z,1758.00
2023-04-19T06:01:35.178Z,1758.00
2023-04-19T06:02:35.405Z,1759.00
2023-04-19T06:03:35.491Z,1764.00
2023-04-19T06:04:35.542Z,1762.00
2023-04-19T06:05:35.473Z,1763.00
2023-04-19T06:06:35.510Z,1763.00
2023-04-19T06:07:40.115Z,1763.00
2023-04-19T06:08:36.745Z,1763.00
2023-04-19T06:09:35.684Z,1767.00
2023-04-19T06:10:51.372Z,1770.00
2023-04-19T06:11:43.161Z,1771.00
2023-04-19T06:12:36.800Z,1771.00
2023-04-19T06:13:35.711Z,1773.00
2023-04-19T06:14:35.737Z,1777.00
2023-04-19T06:15:35.772Z,1780.00
2023-04-19T06:16:35.797Z,1777.00
2023-04-19T06:17:35.853Z,1779.00
2023-04-19T06:18:35.858Z,1774.00
2023-04-19T06:19:35.862Z,1775.00
2023-04-19T06:20:35.876Z,1776.00
2023-04-19T06:21:35.894Z,1777.00
2023-04-19T06:22:35.920Z,1781.00
2023-04-19T06:23:35.939Z,1788.00
2023-04-19T06:24:35.999Z,1800.00
2023-04-19T06:25:36.125Z,1802.00
2023-04-19T06:26:36.790Z,1798.00
2023-04-19T06:27:36.181Z,1802.00
2023-04-19T06:28:36.264Z,1816.00
2023-04-19T06:29:36.311Z,1824.00
2023-04-19T06:30:36.368Z,1827.00
2023-04-19T06:31:36.471Z,1818.00
2023-04-19T06:32:38.270Z,1800.00
2023-04-19T06:33:36.611Z,1777.00
2023-04-19T06:34:36.629Z,1752.00
2023-04-19T06:35:36.650Z,1620.00
2023-04-19T06:36:36.670Z,1549.00
2023-04-19T06:37:36.752Z,1555.00
2023-04-19T06:38:36.749Z,1446.00
2023-04-19T06:39:36.764Z,1420.00
2023-04-19T06:40:36.814Z,1388.00
2023-04-19T06:41:38.815Z,1346.00
2023-04-19T06:42:37.858Z,1242.00
2023-04-19T06:43:36.907Z,1239.00
2023-04-19T06:44:36.921Z,1200.00
2023-04-19T06:45:36.950Z,879.00
2023-04-19T06:46:36.977Z,853.00
2023-04-19T06:47:37.088Z,964.00
2023-04-19T06:48:37.119Z,779.00
2023-04-19T06:49:37.134Z,751.00
2023-04-19T06:50:37.100Z,764.00
2023-04-19T06:51:37.189Z,763.00
2023-04-19T06:52:37.197Z,888.00
2023-04-19T06:53:38.043Z,902.00
2023-04-19T06:54:37.314Z,779.00
2023-04-19T06:55:37.273Z,904.00
2023-04-19T06:56:37.296Z,896.00
2023-04-19T06:57:37.314Z,894.00
2023-04-19T06:58:38.333Z,886.00
2023-04-19T06:59:37.360Z,897.00
2023-04-19T07:00:40.826Z,933.00
2023-04-19T07:01:37.495Z,948.00
2023-04-19T07:02:37.612Z,970.00
2023-04-19T07:03:37.551Z,992.00
2023-04-19T07:04:37.970Z,1003.00
2023-04-19T07:05:37.486Z,1019.00
2023-04-19T07:06:37.503Z,1043.00
2023-04-19T07:07:37.512Z,1113.00
2023-04-19T07:08:49.311Z,1127.00
2023-04-19T07:09:38.598Z,1140.00
2023-04-19T07:10:37.558Z,1154.00
2023-04-19T07:11:37.587Z,1160.00
2023-04-19T07:12:37.582Z,1165.00
2023-04-19T07:13:42.473Z,1170.00
2023-04-19T07:14:39.326Z,1186.00
2023-04-19T07:15:39.332Z,1207.00
2023-04-19T07:16:37.614Z,1229.00
2023-04-19T07:17:37.707Z,1256.00
2023-04-19T07:18:37.662Z,1325.00
2023-04-19T07:19:37.657Z,1345.00
2023-04-19T07:20:37.669Z,1379.00
2023-04-19T07:21:37.683Z,1431.00
2023-04-19T07:22:40.340Z,1504.00
2023-04-19T07:23:37.940Z,1539.00
2023-04-19T07:24:38.035Z,1566.00
2023-04-19T07:25:37.978Z,1617.00
2023-04-19T07:26:37.992Z,1665.00
2023-04-19T07:27:38.021Z,1697.00
2023-04-19T07:28:40.838Z,1717.00
2023-04-19T07:29:38.044Z,1746.00
2023-04-19T07:30:38.817Z,1821.00
2023-04-19T07:31:38.224Z,1853.00
2023-04-19T07:32:38.196Z,1885.00
2023-04-19T07:33:38.054Z,1912.00
2023-04-19T07:34:38.079Z,1979.00
2023-04-19T07:35:38.066Z,1993.00
2023-04-19T07:36:38.822Z,2006.00
2023-04-19T07:37:38.819Z,2063.00
2023-04-19T07:38:38.087Z,2083.00
2023-04-19T07:39:38.148Z,2099.00
2023-04-19T07:40:38.083Z,2127.00
2023-04-19T07:41:38.089Z,2156.00
2023-04-19T07:42:38.083Z,2190.00
2023-04-19T07:43:39.259Z,2226.00
2023-04-19T07:44:38.084Z,2246.00
2023-04-19T07:45:38.377Z,2263.00
2023-04-19T07:46:38.154Z,2284.00
2023-04-19T07:47:38.174Z,2312.00
2023-04-19T07:48:38.084Z,2336.00
2023-04-19T07:49:38.149Z,2409.00
2023-04-19T07:50:38.204Z,2426.00
2023-04-19T07:51:38.228Z,2447.00
2023-04-19T07:52:38.462Z,2472.00
2023-04-19T07:53:38.359Z,2497.00
2023-04-19T07:54:38.376Z,2513.00
2023-04-19T07:55:38.445Z,2552.00
2023-04-19T07:56:40.484Z,2588.00
2023-04-19T07:57:38.604Z,2619.00
2023-04-19T07:58:38.591Z,2669.00
2023-04-19T07:59:38.635Z,2701.00
2023-04-19T08:00:38.882Z,2726.00
2023-04-19T08:01:40.487Z,2749.00
2023-04-19T08:02:38.973Z,2774.00
2023-04-19T08:03:39.034Z,2803.00
2023-04-19T08:04:39.159Z,2832.00
2023-04-19T08:05:39.033Z,2881.00
2023-04-19T08:06:39.054Z,2916.00
2023-04-19T08:07:39.117Z,2936.00
2023-04-19T08:08:40.116Z,2952.00
2023-04-19T08:09:39.351Z,2975.00
2023-04-19T08:10:39.121Z,3011.00
2023-04-19T08:11:39.117Z,3047.00
2023-04-19T08:12:47.274Z,3124.00
2023-04-19T08:13:40.517Z,3104.00
2023-04-19T08:14:56.416Z,2945.00
2023-04-19T08:16:20.528Z,2979.00
2023-04-19T08:17:06.450Z,2743.00
2023-04-19T08:17:42.408Z,2758.00
2023-04-19T08:18:39.417Z,2776.00
2023-04-19T08:19:39.435Z,2525.00
2023-04-19T08:20:39.434Z,2487.00
2023-04-19T08:21:41.438Z,2506.00
2023-04-19T08:22:39.452Z,2524.00
2023-04-19T08:23:48.023Z,2437.00
2023-04-19T08:24:41.335Z,2448.00
2023-04-19T08:25:39.485Z,2440.00
2023-04-19T08:26:40.478Z,2433.00
2023-04-19T08:27:39.479Z,2432.00
2023-04-19T08:28:41.336Z,2438.00
2023-04-19T08:29:40.372Z,2453.00
2023-04-19T08:30:39.507Z,2532.00
2023-04-19T08:31:39.538Z,2574.00
2023-04-19T08:32:39.559Z,2607.00
2023-04-19T08:33:39.525Z,2630.00
2023-04-19T08:34:39.502Z,2653.00
2023-04-19T08:35:39.512Z,2681.00
2023-04-19T08:36:48.378Z,2710.00
2023-04-19T08:37:43.915Z,2731.00
2023-04-19T08:38:39.484Z,2751.00
2023-04-19T08:39:41.383Z,2764.00
2023-04-19T08:40:39.493Z,2784.00
2023-04-19T08:41:39.504Z,2792.00
2023-04-19T08:42:39.494Z,2811.00
2023-04-19T08:43:40.572Z,2840.00
2023-04-19T08:44:51.019Z,2855.00
2023-04-19T08:45:40.554Z,2859.00
2023-04-19T08:46:39.502Z,2862.00
2023-04-19T08:48:39.621Z,2883.00
2023-04-19T08:49:41.966Z,2902.00
2023-04-19T08:50:48.768Z,2910.00
2023-04-19T08:51:40.525Z,2914.00
2023-04-19T08:52:51.810Z,2918.00
2023-04-19T08:53:40.515Z,2920.00
2023-04-19T08:54:39.521Z,2921.00
2023-04-19T08:55:40.503Z,2926.00
2023-04-19T08:56:40.524Z,2936.00
2023-04-19T08:57:39.867Z,2941.00
2023-04-19T08:58:56.835Z,2949.00
2023-04-19T08:59:40.499Z,2964.00
2023-04-19T09:00:39.495Z,2976.00
2023-04-19T09:01:44.382Z,2984.00
2023-04-19T09:02:39.660Z,2995.00
2023-04-19T09:03:55.505Z,3002.00
2023-04-19T09:04:40.784Z,3007.00
2023-04-19T09:05:39.957Z,3013.00
2023-04-19T09:06:39.812Z,3010.00
2023-04-19T09:07:40.466Z,2972.00
2023-04-19T09:08:39.467Z,2945.00
2023-04-19T09:09:48.767Z,2950.00
2023-04-19T09:10:40.870Z,2958.00
2023-04-19T09:11:39.440Z,2968.00
2023-04-19T09:12:39.426Z,2977.00
2023-04-19T09:13:40.373Z,2979.00
2023-04-19T09:14:41.430Z,2979.00
2023-04-19T09:15:39.475Z,2979.00
2023-04-19T09:16:40.278Z,2998.00
2023-04-19T09:17:39.445Z,2974.00
2023-04-19T09:18:48.798Z,2931.00
2023-04-19T09:19:40.435Z,2915.00
2023-04-19T09:20:39.459Z,2900.00
2023-04-19T09:21:39.469Z,2894.00
2023-04-19T09:22:39.446Z,2875.00
2023-04-19T09:23:39.440Z,2867.00
2023-04-19T09:25:55.037Z,2859.00
2023-04-19T09:26:39.456Z,2857.00
2023-04-19T09:27:39.454Z,2855.00
2023-04-19T09:28:39.457Z,2853.00
2023-04-19T09:29:39.468Z,2845.00
2023-04-19T09:30:50.129Z,2837.00
2023-04-19T09:31:50.943Z,2831.00
2023-04-19T09:32:40.552Z,2830.00
2023-04-19T09:33:39.575Z,2830.00
2023-04-19T09:34:39.498Z,2825.00
2023-04-19T09:35:39.509Z,2821.00
2023-04-19T09:36:39.517Z,2822.00
2023-04-19T09:38:40.522Z,2811.00
2023-04-19T09:39:40.515Z,2805.00
2023-04-19T09:40:39.515Z,2798.00
2023-04-19T09:41:41.441Z,2797.00
2023-04-19T09:42:55.482Z,2788.00
2023-04-19T09:45:09.529Z,2773.00
2023-04-19T09:45:40.556Z,2771.00
2023-04-19T09:46:39.630Z,2770.00
2023-04-19T09:47:39.624Z,2764.00
2023-04-19T09:48:39.627Z,2758.00
2023-04-19T09:49:48.529Z,2756.00
2023-04-19T09:50:53.658Z,2750.00
2023-04-19T09:51:40.604Z,2752.00
2023-04-19T09:52:39.603Z,2745.00
2023-04-19T09:53:39.614Z,2737.00
2023-04-19T09:54:39.616Z,2731.00
2023-04-19T09:55:48.949Z,2725.00
2023-04-19T09:56:40.682Z,2719.00
2023-04-19T09:57:39.653Z,2715.00
2023-04-19T09:58:51.347Z,2709.00
2023-04-19T09:59:40.678Z,2705.00
2023-04-19T10:01:39.711Z,2695.00
2023-04-19T10:02:39.881Z,2696.00
2023-04-19T10:03:39.865Z,2689.00
2023-04-19T10:05:39.902Z,2685.00
2023-04-19T10:06:58.515Z,2681.00
2023-04-19T10:07:40.905Z,2677.00
2023-04-19T10:08:39.829Z,2675.00
2023-04-19T10:09:51.804Z,2668.00
2023-04-19T10:10:42.332Z,2668.00
2023-04-19T10:11:40.121Z,2666.00
2023-04-19T10:13:40.905Z,2657.00
2023-04-19T10:14:39.912Z,2651.00
2023-04-19T10:15:50.090Z,2644.00
2023-04-19T10:16:40.993Z,2643.00
2023-04-19T10:17:40.096Z,2633.00
2023-04-19T10:18:39.994Z,2631.00
2023-04-19T10:19:40.017Z,2629.00
2023-04-19T10:20:40.035Z,2616.00
2023-04-19T10:21:40.049Z,2615.00
2023-04-19T10:22:41.920Z,2609.00
2023-04-19T10:23:40.143Z,2587.00
2023-04-19T10:24:40.621Z,2593.00
2023-04-19T10:25:40.107Z,2597.00
2023-04-19T10:26:40.127Z,2593.00
2023-04-19T10:27:40.555Z,2585.00
2023-04-19T10:28:40.201Z,2581.00
2023-04-19T10:29:40.806Z,2573.00
2023-04-19T10:30:40.295Z,2568.00
2023-04-19T10:31:41.839Z,2557.00
2023-04-19T10:32:40.249Z,2551.00
2023-04-19T10:33:40.243Z,2550.00
2023-04-19T10:34:40.275Z,2546.00
2023-04-19T10:35:40.292Z,2547.00
2023-04-19T10:36:40.285Z,2543.00
2023-04-19T10:37:40.299Z,2539.00
2023-04-19T10:38:40.351Z,2543.00
2023-04-19T10:39:40.356Z,2544.00
2023-04-19T10:40:40.393Z,2538.00
2023-04-19T10:41:40.385Z,2541.00
2023-04-19T10:42:40.375Z,2544.00
2023-04-19T10:43:40.400Z,2544.00
2023-04-19T10:44:40.406Z,2543.00
2023-04-19T10:45:41.443Z,2540.00
2023-04-19T10:46:40.518Z,2531.00
2023-04-19T10:47:40.466Z,2526.00
2023-04-19T10:48:40.456Z,2520.00
2023-04-19T10:49:40.469Z,2519.00
2023-04-19T10:50:40.509Z,2519.00
2023-04-19T10:51:40.483Z,2506.00
2023-04-19T10:52:40.500Z,2487.00
2023-04-19T10:53:40.503Z,2478.00
2023-04-19T10:54:40.544Z,2476.00
2023-04-19T10:55:40.528Z,2475.00
2023-04-19T10:56:40.533Z,2476.00
2023-04-19T10:57:40.540Z,2477.00
2023-04-19T10:58:41.038Z,2475.00
2023-04-19T10:59:40.569Z,2474.00
2023-04-19T11:00:40.620Z,2472.00
2023-04-19T11:01:40.888Z,2470.00
2023-04-19T11:02:41.023Z,2467.00
2023-04-19T11:03:40.749Z,2464.00
2023-04-19T11:04:41.487Z,2460.00
2023-04-19T11:05:40.596Z,2461.00
2023-04-19T11:06:40.615Z,2461.00
2023-04-19T11:07:40.614Z,2462.00
2023-04-19T11:08:40.625Z,2460.00
2023-04-19T11:09:40.642Z,2457.00
2023-04-19T11:10:40.748Z,2454.00
2023-04-19T11:11:40.656Z,2450.00
2023-04-19T11:12:40.675Z,2447.00
2023-04-19T11:13:40.680Z,2444.00
2023-04-19T11:14:40.664Z,2441.00
2023-04-19T11:15:40.696Z,2436.00
2023-04-19T11:16:45.997Z,2431.00
2023-04-19T11:17:41.757Z,2430.00
2023-04-19T11:18:41.399Z,2423.00
2023-04-19T11:19:40.710Z,2418.00
2023-04-19T11:20:40.771Z,2420.00
2023-04-19T11:21:40.736Z,2419.00
2023-04-19T11:22:40.754Z,2415.00
2023-04-19T11:23:40.731Z,2412.00
2023-04-19T11:24:40.732Z,2409.00
2023-04-19T11:25:42.413Z,2409.00
2023-04-19T11:26:40.755Z,2406.00
2023-04-19T11:27:40.758Z,2399.00
2023-04-19T11:28:40.769Z,2391.00
2023-04-19T11:29:40.780Z,2390.00
2023-04-19T11:30:40.788Z,2386.00
2023-04-19T11:31:40.814Z,2382.00
2023-04-19T11:32:40.846Z,2378.00
2023-04-19T11:33:40.814Z,2374.00
2023-04-19T11:34:40.817Z,2373.00
2023-04-19T11:35:40.820Z,2371.00
2023-04-19T11:36:40.845Z,2369.00
2023-04-19T11:37:40.844Z,2370.00
2023-04-19T11:38:40.854Z,2372.00
2023-04-19T11:39:40.880Z,2366.00
2023-04-19T11:40:40.881Z,2366.00
2023-04-19T11:41:40.959Z,2359.00
2023-04-19T11:42:41.090Z,2360.00
2023-04-19T11:43:40.912Z,2358.00
2023-04-19T11:44:41.011Z,2355.00
2023-04-19T11:45:41.072Z,2352.00
2023-04-19T11:46:41.038Z,2347.00
2023-04-19T11:47:40.987Z,2345.00
2023-04-19T11:48:40.954Z,2344.00
2023-04-19T11:49:40.975Z,2337.00
2023-04-19T11:50:40.961Z,2335.00
2023-04-19T11:51:40.983Z,2335.00
2023-04-19T11:52:41.107Z,2333.00
2023-04-19T11:53:41.012Z,2333.00
2023-04-19T11:54:41.002Z,2331.00
2023-04-19T11:55:41.010Z,2334.00
2023-04-19T11:56:41.022Z,2333.00
2023-04-19T11:57:41.731Z,2332.00
2023-04-19T11:58:41.056Z,2331.00
2023-04-19T11:59:42.070Z,2326.00
2023-04-19T12:00:41.997Z,2322.00
2023-04-19T12:01:41.256Z,2324.00
2023-04-19T12:02:41.256Z,2324.00
2023-04-19T12:03:41.331Z,2322.00
2023-04-19T12:04:41.322Z,2319.00
2023-04-19T12:05:41.208Z,2315.00
2023-04-19T12:06:41.151Z,2315.00
2023-04-19T12:07:42.958Z,2312.00
2023-04-19T12:08:41.182Z,2302.00
2023-04-19T12:09:42.949Z,2299.00
2023-04-19T12:10:41.222Z,2296.00
2023-04-19T12:11:41.431Z,2293.00
2023-04-19T12:12:41.261Z,2293.00
2023-04-19T12:13:41.931Z,2291.00